METAR Data
IDs: Format: Raw Decoded Include TAF

Data at: 1306 UTC 24 Jan 2021

KRZL 241255Z AUTO 11005KT 10SM OVC050 M02/M05 A3011 RMK AO2